Time;durP1;ratioP1;P1;durP2;ratioP2;P2;SDS_P1;SDS_P2;PMS_P1;PMS_P2;Temp;Humidity;BMP_temperature;BMP_pressure;BME280_temperature;BME280_humidity;BME280_pressure;Samples;Min_cycle;Max_cycle;Signal;HPM_P1;HPM_P2
2021/06/13 00:01:09;;;;;;;11.25;3.70;;;12.10;99.90;;;;;;5119204;28;20043;-48
2021/06/13 00:03:35;;;;;;;;;;;12.10;99.90;;;;;;5126081;28;20390;-52
2021/06/13 00:06:01;;;;;;;7.07;2.92;;;12.00;99.90;;;;;;5116808;28;20006;-53
2021/06/13 00:08:27;;;;;;;11.75;3.65;;;12.10;99.90;;;;;;5125633;27;20100;-53
2021/06/13 00:10:53;;;;;;;;;;;12.10;99.90;;;;;;5126297;28;20050;-53
2021/06/13 00:13:19;;;;;;;10.45;3.78;;;12.00;99.90;;;;;;5125995;28;19959;-48
2021/06/13 00:15:44;;;;;;;;;;;12.00;99.90;;;;;;5119630;28;20040;-50
2021/06/13 00:18:10;;;;;;;12.70;4.53;;;11.90;99.90;;;;;;5095388;28;19941;-52
2021/06/13 00:20:36;;;;;;;;;;;12.00;99.90;;;;;;5092485;28;20414;-48
2021/06/13 00:23:01;;;;;;;9.85;4.00;;;12.00;99.90;;;;;;5084089;28;19916;-49
2021/06/13 00:25:27;;;;;;;;;;;11.90;99.90;;;;;;5089201;28;20043;-49
2021/06/13 00:27:52;;;;;;;11.98;4.28;;;11.90;99.90;;;;;;5090986;28;19924;-52
2021/06/13 00:30:18;;;;;;;;;;;11.90;99.90;;;;;;5083835;28;20071;-52
2021/06/13 00:32:44;;;;;;;13.10;3.95;;;11.80;99.90;;;;;;5075315;28;19920;-53
2021/06/13 00:35:10;;;;;;;;;;;11.90;99.90;;;;;;5091459;28;20074;-50
2021/06/13 00:37:35;;;;;;;8.60;3.88;;;11.90;99.90;;;;;;5091320;28;19955;-51
2021/06/13 00:40:01;;;;;;;;;;;11.90;99.90;;;;;;5091812;28;20044;-52
2021/06/13 00:42:27;;;;;;;12.85;3.90;;;11.90;99.90;;;;;;5079219;28;19916;-49
2021/06/13 00:44:52;;;;;;;;;;;11.90;99.90;;;;;;5079164;28;20040;-51
2021/06/13 00:47:18;;;;;;;11.02;3.40;;;11.90;99.90;;;;;;5088002;28;19915;-50
2021/06/13 00:49:43;;;;;;;;;;;11.90;99.90;;;;;;5091479;28;20055;-50
2021/06/13 00:52:09;;;;;;;11.98;3.65;;;11.90;99.90;;;;;;5090559;28;19916;-52
2021/06/13 00:54:34;;;;;;;;;;;11.80;99.90;;;;;;5091542;28;20032;-49
2021/06/13 00:57:00;;;;;;;8.73;4.07;;;11.90;99.90;;;;;;5090631;28;20337;-49
2021/06/13 00:59:26;;;;;;;;;;;11.80;99.90;;;;;;5100586;28;20078;-52
2021/06/13 01:01:51;;;;;;;13.43;3.60;;;11.70;99.90;;;;;;5082478;28;19942;-53
2021/06/13 01:04:17;;;;;;;;;;;11.80;99.90;;;;;;5078204;28;20036;-53
2021/06/13 01:07:09;;;;;;;15.48;4.35;;;11.80;99.90;;;;;;5089661;28;19916;-50
2021/06/13 01:09:44;;;;;;;15.10;4.43;;;11.70;99.90;;;;;;5091143;28;20043;-52
2021/06/13 01:12:19;;;;;;;13.77;4.75;;;11.70;99.90;;;;;;5090470;28;20072;-50
2021/06/13 01:15:03;;;;;;;11.75;4.00;;;11.60;99.90;;;;;;5090277;28;20044;-50
2021/06/13 01:17:32;;;;;;;16.75;4.90;;;11.70;99.90;;;;;;5109582;28;20503;-49
2021/06/13 01:20:25;;;;;;;13.13;4.38;;;11.60;99.90;;;;;;5110719;28;20451;-53
2021/06/13 01:23:31;;;;;;;8.98;4.20;;;11.70;99.90;;;;;;5111175;28;20044;-50
2021/06/13 01:26:37;;;;;;;11.93;4.38;;;11.70;99.90;;;;;;5110411;28;20096;-51
2021/06/13 01:29:11;;;;;;;10.88;4.07;;;11.60;99.90;;;;;;5101538;28;20043;-53
2021/06/13 01:31:42;;;;;;;13.15;4.70;;;11.60;99.90;;;;;;5078350;28;20040;-51
2021/06/13 01:34:12;;;;;;;13.63;5.03;;;11.60;99.90;;;;;;5080770;28;20441;-47
2021/06/13 01:36:38;;;;;;;14.75;4.32;;;11.60;99.90;;;;;;5086580;28;20048;-47
2021/06/13 01:39:11;;;;;;;;;;;11.60;99.90;;;;;;5081392;28;20042;-47
2021/06/13 01:41:38;;;;;;;11.43;5.78;;;11.60;99.90;;;;;;5081767;28;20004;-50
2021/06/13 01:44:06;;;;;;;15.40;4.88;;;11.50;99.90;;;;;;5075130;28;20041;-50
2021/06/13 01:46:35;;;;;;;11.60;4.63;;;11.60;99.90;;;;;;5068547;28;20044;-50
2021/06/13 01:49:02;;;;;;;20.70;4.97;;;11.60;99.90;;;;;;5068762;28;20496;-53
2021/06/13 01:51:29;;;;;;;24.67;5.85;;;11.60;99.90;;;;;;5069700;28;20112;-50
2021/06/13 01:53:55;;;;;;;33.47;6.55;;;11.50;99.90;;;;;;5069091;28;20418;-52
2021/06/13 01:56:20;;;;;;;;;;;11.30;99.90;;;;;;5083708;28;20052;-50
2021/06/13 01:58:49;;;;;;;10.63;4.57;;;11.30;99.90;;;;;;5081270;28;19916;-52
2021/06/13 02:01:17;;;;;;;17.70;4.47;;;11.40;99.90;;;;;;5089332;28;20039;-48
2021/06/13 02:03:47;;;;;;;17.00;4.80;;;11.40;99.90;;;;;;5088872;28;20495;-50
2021/06/13 02:06:14;;;;;;;23.17;6.03;;;11.40;99.90;;;;;;5080604;28;20044;-48
2021/06/13 02:08:41;;;;;;;17.48;5.35;;;11.30;99.90;;;;;;5088447;28;20479;-49
2021/06/13 02:11:09;;;;;;;19.05;5.30;;;11.20;99.90;;;;;;5082091;28;20373;-51
2021/06/13 02:13:37;;;;;;;19.10;5.82;;;11.30;99.90;;;;;;5076284;28;20097;-50
2021/06/13 02:16:05;;;;;;;18.30;5.40;;;11.20;99.90;;;;;;5068456;28;20040;-47
2021/06/13 02:18:31;;;;;;;18.88;5.20;;;11.20;99.90;;;;;;5068962;28;20040;-53
2021/06/13 02:21:00;;;;;;;16.60;5.72;;;11.10;99.90;;;;;;5068617;28;20041;-49
2021/06/13 02:23:27;;;;;;;13.88;5.13;;;11.10;99.90;;;;;;5069307;28;20076;-52
2021/06/13 02:25:54;;;;;;;19.40;6.00;;;11.10;99.90;;;;;;5067176;28;20044;-53
2021/06/13 02:28:22;;;;;;;18.88;5.57;;;11.00;99.90;;;;;;5071996;28;20043;-48
2021/06/13 02:30:51;;;;;;;15.75;5.68;;;11.00;99.90;;;;;;5068775;28;20531;-50
2021/06/13 02:33:18;;;;;;;16.75;5.50;;;11.00;99.90;;;;;;5077556;28;20044;-50
2021/06/13 02:35:47;;;;;;;22.67;6.85;;;11.00;99.90;;;;;;5088597;28;20126;-50
2021/06/13 02:38:14;;;;;;;15.82;4.72;;;11.00;99.90;;;;;;5089162;28;20076;-47
2021/06/13 02:40:40;;;;;;;17.90;5.97;;;11.00;99.90;;;;;;5088293;28;20047;-52
2021/06/13 02:43:06;;;;;;;14.68;4.93;;;11.00;99.90;;;;;;5080550;28;20055;-47
2021/06/13 02:45:31;;;;;;;;;;;11.10;99.90;;;;;;5086494;28;20621;-51
2021/06/13 02:47:57;;;;;;;15.88;4.85;;;11.00;99.90;;;;;;5079898;28;20282;-47
2021/06/13 02:50:23;;;;;;;;;;;11.00;99.90;;;;;;5070376;28;20044;-48
2021/06/13 02:53:26;;;;;;;14.25;5.05;;;11.00;99.90;;;;;;5066814;28;19920;-48
2021/06/13 02:55:57;;;;;;;17.13;5.45;;;11.00;99.90;;;;;;5074424;28;20395;-50
2021/06/13 02:58:33;;;;;;;10.40;4.18;;;11.00;99.90;;;;;;5080318;28;20056;-51
2021/06/13 03:00:59;;;;;;;15.15;5.28;;;10.90;99.90;;;;;;5073200;28;20042;-53
2021/06/13 03:03:27;;;;;;;12.35;5.00;;;10.90;99.90;;;;;;5081436;28;20040;-50
2021/06/13 03:05:55;;;;;;;10.80;4.88;;;10.80;99.90;;;;;;5066937;28;20041;-50
2021/06/13 03:08:21;;;;;;;18.25;5.90;;;10.80;99.90;;;;;;5067490;28;20476;-50
2021/06/13 03:10:48;;;;;;;;;;;10.70;99.90;;;;;;5067805;28;20076;-52
2021/06/13 03:13:15;;;;;;;16.88;6.55;;;10.80;99.90;;;;;;5067379;28;19974;-49
2021/06/13 03:15:41;;;;;;;23.45;6.57;;;10.70;99.90;;;;;;5066850;28;20052;-52
2021/06/13 03:18:09;;;;;;;23.50;7.25;;;10.70;99.90;;;;;;5067605;28;20127;-51
2021/06/13 03:20:36;;;;;;;17.70;6.75;;;10.60;99.90;;;;;;5067495;28;20051;-53
2021/06/13 03:23:02;;;;;;;17.92;6.35;;;10.60;99.90;;;;;;5073219;28;20123;-52
2021/06/13 03:25:30;;;;;;;19.30;6.57;;;10.60;99.90;;;;;;5083018;28;20045;-48
2021/06/13 03:27:56;;;;;;;25.48;6.68;;;10.50;99.90;;;;;;5075545;28;20057;-53
2021/06/13 03:30:23;;;;;;;16.95;7.00;;;10.40;99.90;;;;;;5077105;28;20048;-50
2021/06/13 03:32:49;;;;;;;28.27;10.93;;;10.50;99.90;;;;;;5092578;28;20039;-48
2021/06/13 03:35:14;;;;;;;;;;;10.50;99.90;;;;;;5109175;28;20092;-48
2021/06/13 03:37:41;;;;;;;22.02;5.75;;;10.50;99.90;;;;;;5108692;28;20431;-51
2021/06/13 03:40:08;;;;;;;20.15;5.97;;;10.60;99.90;;;;;;5108179;28;20050;-49
2021/06/13 03:42:35;;;;;;;17.30;7.05;;;10.50;99.90;;;;;;5109148;28;20070;-49
2021/06/13 03:45:01;;;;;;;13.75;6.05;;;10.40;99.90;;;;;;5108653;28;20052;-51
2021/06/13 03:47:27;;;;;;;;;;;10.40;99.90;;;;;;5108164;28;20376;-50
2021/06/13 03:49:53;;;;;;;14.80;5.93;;;10.40;99.90;;;;;;5108438;28;19968;-49
2021/06/13 03:52:19;;;;;;;;;;;10.40;99.90;;;;;;5109885;28;20043;-55
2021/06/13 03:54:45;;;;;;;22.45;5.35;;;10.50;99.90;;;;;;5112403;28;20273;-51
2021/06/13 03:57:11;;;;;;;16.55;5.97;;;10.50;99.90;;;;;;5096167;28;20443;-51
2021/06/13 03:59:38;;;;;;;22.13;6.57;;;10.60;99.90;;;;;;5111981;28;20058;-51
2021/06/13 04:02:05;;;;;;;14.80;5.03;;;10.60;99.90;;;;;;5095656;28;20075;-50
2021/06/13 04:04:41;;;;;;;15.68;5.55;;;10.60;99.90;;;;;;5091648;28;20036;-53
2021/06/13 04:07:09;;;;;;;18.85;5.10;;;10.60;99.90;;;;;;5089087;28;20683;-54
2021/06/13 04:09:38;;;;;;;16.88;5.55;;;10.50;99.90;;;;;;5091859;28;20057;-50
2021/06/13 04:12:05;;;;;;;17.48;5.25;;;10.60;99.90;;;;;;5091356;28;20036;-50
2021/06/13 04:14:31;;;;;;;18.05;6.00;;;10.60;99.90;;;;;;5073267;28;20048;-53
2021/06/13 04:16:57;;;;;;;;;;;10.70;99.90;;;;;;5090777;28;20507;-48
2021/06/13 04:19:22;;;;;;;17.20;5.57;;;10.70;99.90;;;;;;5091799;28;20375;-50
2021/06/13 04:21:48;;;;;;;;;;;10.70;99.90;;;;;;5091456;28;20047;-50
2021/06/13 04:24:17;;;;;;;15.85;5.90;;;10.50;99.90;;;;;;5090827;28;19920;-50
2021/06/13 04:26:43;;;;;;;18.13;6.72;;;10.70;99.90;;;;;;5091295;28;20044;-54
2021/06/13 04:29:13;;;;;;;23.00;5.97;;;10.60;99.90;;;;;;5090442;28;20491;-52
2021/06/13 04:31:38;;;;;;;16.20;4.80;;;10.80;99.90;;;;;;5079581;28;20044;-50
2021/06/13 04:34:04;;;;;;;;;;;11.00;99.90;;;;;;5080046;28;20066;-51
2021/06/13 04:36:30;;;;;;;19.77;6.93;;;11.40;99.90;;;;;;5090935;28;20403;-52
2021/06/13 04:38:55;;;;;;;;;;;11.50;99.90;;;;;;5090530;28;20040;-53
2021/06/13 04:41:21;;;;;;;14.65;5.53;;;11.50;99.90;;;;;;5091051;28;20336;-50
2021/06/13 04:43:47;;;;;;;;;;;11.50;99.90;;;;;;5091403;28;20067;-55
2021/06/13 04:46:17;;;;;;;19.95;5.80;;;11.50;99.90;;;;;;5090102;28;20382;-52
2021/06/13 04:48:43;;;;;;;15.65;4.72;;;11.50;99.90;;;;;;5090656;28;20048;-54
2021/06/13 04:51:09;;;;;;;;;;;11.40;99.90;;;;;;5091585;28;20394;-49
2021/06/13 04:53:50;;;;;;;15.85;5.40;;;11.40;99.90;;;;;;5092483;28;20579;-49
2021/06/13 04:56:24;;;;;;;15.43;4.80;;;11.60;99.90;;;;;;5085705;28;20680;-50
2021/06/13 04:58:49;;;;;;;14.80;4.63;;;11.60;99.90;;;;;;5080894;28;20085;-55
2021/06/13 05:01:15;;;;;;;;;;;11.70;99.90;;;;;;5086052;28;20040;-52
2021/06/13 05:03:43;;;;;;;12.50;4.13;;;11.60;99.90;;;;;;5093776;28;19928;-53
2021/06/13 05:06:09;;;;;;;16.00;4.68;;;11.60;99.90;;;;;;5071291;28;20404;-50
2021/06/13 05:11:11;;;;;;;13.90;4.53;;;11.40;99.50;;;;;;5230971;22;19921;-57
2021/06/13 05:13:43;;;;;;;15.32;3.55;;;11.40;99.90;;;;;;5015548;28;20609;-58
2021/06/13 05:16:09;;;;;;;16.17;4.85;;;11.50;99.40;;;;;;5013544;28;20512;-58
2021/06/13 05:18:36;;;;;;;19.83;5.57;;;11.50;99.50;;;;;;5000088;28;20187;-59
2021/06/13 05:21:04;;;;;;;13.38;4.18;;;11.40;99.30;;;;;;5013783;28;20041;-58
2021/06/13 05:23:31;;;;;;;17.02;5.20;;;11.40;99.90;;;;;;4992963;28;20048;-59
2021/06/13 05:26:04;;;;;;;12.30;4.75;;;11.50;99.90;;;;;;5008373;28;20037;-59
2021/06/13 05:28:31;;;;;;;16.13;4.97;;;11.50;99.90;;;;;;5008519;28;20812;-60
2021/06/13 05:30:59;;;;;;;22.98;6.07;;;11.60;99.50;;;;;;4989263;28;20096;-61
2021/06/13 05:33:25;;;;;;;17.80;5.18;;;11.60;99.90;;;;;;4993594;28;20061;-63
2021/06/13 05:35:51;;;;;;;;;;;11.60;99.90;;;;;;5011098;28;20112;-56
2021/06/13 05:38:17;;;;;;;13.50;4.32;;;11.60;99.50;;;;;;5006921;28;19924;-58
2021/06/13 05:40:43;;;;;;;15.57;4.75;;;11.90;98.60;;;;;;5008900;28;20046;-58
2021/06/13 05:43:09;;;;;;;;;;;12.00;98.80;;;;;;5009290;28;20038;-56
2021/06/13 05:45:40;;;;;;;12.25;4.45;;;11.90;98.00;;;;;;5010508;28;20463;-59
2021/06/13 05:48:07;;;;;;;16.52;4.70;;;12.10;98.60;;;;;;4994626;28;20046;-59
2021/06/13 05:50:36;;;;;;;13.95;4.47;;;11.90;98.20;;;;;;4975861;28;20046;-60
2021/06/13 05:53:05;;;;;;;14.50;5.03;;;11.90;98.00;;;;;;4998207;28;20137;-59
2021/06/13 05:55:36;;;;;;;14.68;4.43;;;11.90;98.60;;;;;;5011717;28;20073;-59
2021/06/13 05:58:03;;;;;;;12.23;4.03;;;12.00;99.00;;;;;;5008024;28;20104;-62
2021/06/13 06:00:31;;;;;;;;;;;11.90;98.20;;;;;;5010871;28;20044;-64
2021/06/13 06:02:57;;;;;;;18.83;4.80;;;11.70;98.10;;;;;;5007167;28;19917;-58
2021/06/13 06:05:23;;;;;;;;;;;11.80;98.90;;;;;;5011694;28;20068;-60
2021/06/13 06:07:50;;;;;;;10.98;3.80;;;12.20;98.50;;;;;;5012994;28;20021;-59
2021/06/13 06:10:27;;;;;;;12.70;4.13;;;12.60;97.70;;;;;;5009964;28;20099;-59
2021/06/13 06:13:04;;;;;;;11.25;3.80;;;12.40;97.40;;;;;;4993678;28;20049;-61
2021/06/13 06:15:33;;;;;;;19.77;4.80;;;12.20;97.60;;;;;;5012043;28;20084;-62
2021/06/13 06:17:59;;;;;;;25.17;4.68;;;12.10;98.00;;;;;;5010866;28;20046;-60
2021/06/13 06:20:27;;;;;;;14.68;4.30;;;12.00;98.40;;;;;;4994026;28;20057;-57
2021/06/13 06:22:54;;;;;;;24.00;5.38;;;12.20;98.20;;;;;;4993005;28;20038;-60
2021/06/13 06:25:23;;;;;;;11.45;5.15;;;12.00;97.70;;;;;;5010718;28;20048;-60
2021/06/13 06:27:50;;;;;;;12.15;4.25;;;12.40;97.90;;;;;;4991371;28;20054;-62
2021/06/13 06:30:19;;;;;;;15.95;5.47;;;12.30;98.60;;;;;;5011439;28;20061;-60
2021/06/13 06:32:46;;;;;;;16.65;5.45;;;12.10;98.50;;;;;;5009989;28;20041;-61
2021/06/13 06:35:13;;;;;;;15.25;6.07;;;12.10;98.70;;;;;;5013969;28;20933;-60
2021/06/13 06:37:42;;;;;;;17.33;4.57;;;12.40;99.30;;;;;;5014278;28;20057;-59
2021/06/13 06:40:11;;;;;;;12.90;4.47;;;13.00;97.30;;;;;;5012096;28;20041;-61
2021/06/13 06:42:37;;;;;;;17.65;5.57;;;13.10;96.80;;;;;;5030955;28;20037;-58
2021/06/13 06:45:08;;;;;;;14.60;4.47;;;13.10;96.90;;;;;;5029499;28;20045;-59
2021/06/13 06:47:33;;;;;;;21.95;5.45;;;13.10;97.80;;;;;;5029515;28;20091;-61
2021/06/13 06:49:59;;;;;;;;;;;13.10;96.60;;;;;;5030109;28;20041;-57
2021/06/13 06:52:25;;;;;;;16.95;4.30;;;13.10;96.20;;;;;;5029955;28;19927;-59
2021/06/13 06:54:54;;;;;;;;;;;13.20;96.50;;;;;;4998521;28;20518;-59
2021/06/13 06:57:20;;;;;;;15.32;4.28;;;13.30;96.00;;;;;;5012543;28;19952;-59
2021/06/13 06:59:46;;;;;;;12.15;4.47;;;14.00;95.30;;;;;;5013818;28;20057;-60
2021/06/13 07:02:13;;;;;;;;;;;14.80;93.30;;;;;;5017251;28;20037;-60
2021/06/13 07:04:42;;;;;;;15.63;4.35;;;15.00;92.40;;;;;;5032414;28;20303;-58
2021/06/13 07:07:10;;;;;;;16.75;5.18;;;14.60;94.00;;;;;;5030923;28;20055;-59
2021/06/13 07:09:36;;;;;;;13.23;4.47;;;14.00;94.30;;;;;;5031833;28;20041;-59
2021/06/13 07:12:04;;;;;;;17.73;4.35;;;13.70;96.00;;;;;;5013491;28;20061;-57
2021/06/13 07:14:32;;;;;;;12.65;4.78;;;13.30;95.20;;;;;;5031939;28;20400;-63
2021/06/13 07:16:58;;;;;;;11.68;4.50;;;13.20;97.70;;;;;;5031188;28;20131;-60
2021/06/13 07:19:24;;;;;;;;;;;13.10;96.40;;;;;;5031443;28;20042;-59
2021/06/13 07:21:50;;;;;;;14.65;4.30;;;13.20;96.10;;;;;;5030757;28;20003;-60
2021/06/13 07:24:16;;;;;;;16.02;4.97;;;13.70;95.50;;;;;;5030427;28;20091;-60
2021/06/13 07:26:41;;;;;;;;;;;14.30;94.20;;;;;;5030293;28;20456;-58
2021/06/13 07:29:08;;;;;;;13.50;3.90;;;14.20;94.60;;;;;;5035385;28;19917;-57
2021/06/13 07:31:34;;;;;;;14.00;4.97;;;14.40;93.80;;;;;;5000546;28;20071;-58
2021/06/13 07:34:00;;;;;;;;;;;14.50;95.30;;;;;;5034575;28;20037;-58
2021/06/13 07:36:25;;;;;;;10.57;3.50;;;14.50;94.00;;;;;;5034508;28;19924;-58
2021/06/13 07:38:51;;;;;;;;;;;14.60;93.60;;;;;;5017613;28;20046;-57
2021/06/13 07:41:17;;;;;;;15.23;4.30;;;14.50;93.30;;;;;;5035360;28;19921;-58
2021/06/13 07:43:51;;;;;;;;;;;14.50;93.80;;;;;;5036473;28;20095;-57
2021/06/13 07:46:17;;;;;;;15.32;4.50;;;14.40;95.20;;;;;;5033265;28;19928;-59
2021/06/13 07:48:43;;;;;;;11.93;4.82;;;14.10;94.10;;;;;;5013800;28;20034;-60
2021/06/13 07:51:10;;;;;;;;;;;14.10;94.60;;;;;;5013240;28;20096;-59
2021/06/13 07:53:43;;;;;;;13.98;5.78;;;14.20;95.00;;;;;;5032030;28;19924;-59
2021/06/13 07:56:09;;;;;;;10.27;4.30;;;14.40;94.00;;;;;;5032078;28;20053;-60
2021/06/13 07:58:34;;;;;;;;;;;14.40;94.00;;;;;;5034491;28;20068;-64
2021/06/13 08:01:00;;;;;;;9.38;4.05;;;14.30;93.10;;;;;;5032097;28;19917;-57
2021/06/13 08:03:25;;;;;;;;;;;13.90;94.30;;;;;;5014885;28;20041;-61
2021/06/13 08:05:51;;;;;;;8.90;3.63;;;14.10;93.90;;;;;;5032675;28;19921;-61
2021/06/13 08:08:17;;;;;;;;;;;14.50;93.80;;;;;;5034326;28;20041;-62
2021/06/13 08:10:44;;;;;;;11.77;4.60;;;14.70;92.80;;;;;;5000644;28;19927;-61
2021/06/13 08:13:10;;;;;;;13.27;5.43;;;15.20;92.20;;;;;;5018410;28;20458;-60
2021/06/13 08:15:36;;;;;;;14.38;4.90;;;16.00;90.60;;;;;;5016450;28;20083;-59
2021/06/13 08:18:02;;;;;;;;;;;16.00;90.90;;;;;;5034083;28;20091;-60
2021/06/13 08:20:28;;;;;;;12.20;4.38;;;15.70;91.90;;;;;;5016074;28;19920;-61
2021/06/13 08:22:54;;;;;;;11.07;4.47;;;15.60;91.60;;;;;;5033408;28;20041;-59
2021/06/13 08:25:20;;;;;;;;;;;15.70;90.50;;;;;;5034168;28;20158;-60
2021/06/13 08:27:46;;;;;;;9.10;3.65;;;15.90;89.30;;;;;;5031745;28;19935;-61
2021/06/13 08:30:14;;;;;;;12.70;4.25;;;15.70;91.40;;;;;;5030655;28;20044;-62
2021/06/13 08:32:40;;;;;;;13.60;4.95;;;15.80;90.80;;;;;;5033252;28;20037;-60
2021/06/13 08:35:08;;;;;;;9.25;4.13;;;15.90;89.20;;;;;;5032177;28;20072;-58
2021/06/13 08:37:34;;;;;;;9.60;4.28;;;16.50;90.80;;;;;;5015857;28;20071;-59
2021/06/13 08:40:00;;;;;;;8.60;3.72;;;16.90;88.00;;;;;;5028624;28;20059;-60
2021/06/13 08:42:27;;;;;;;15.40;4.22;;;17.70;81.80;;;;;;5011834;28;20052;-61
2021/06/13 08:44:55;;;;;;;12.25;4.45;;;17.40;81.70;;;;;;5013826;28;20053;-60
2021/06/13 08:47:22;;;;;;;18.42;5.18;;;17.10;86.40;;;;;;5014930;28;20161;-62
2021/06/13 08:49:48;;;;;;;14.05;4.90;;;16.70;86.30;;;;;;5014406;28;20037;-62
2021/06/13 08:52:14;;;;;;;;;;;16.50;90.50;;;;;;5016360;28;20057;-60
2021/06/13 08:54:41;;;;;;;12.48;4.88;;;16.30;88.20;;;;;;5034150;28;19957;-60
2021/06/13 08:57:11;;;;;;;13.80;4.30;;;16.20;91.10;;;;;;5031692;28;20050;-61
2021/06/13 08:59:39;;;;;;;14.45;5.60;;;15.80;89.80;;;;;;5033562;28;20054;-56
2021/06/13 09:02:06;;;;;;;16.00;4.78;;;15.70;90.30;;;;;;5029215;28;20067;-59
2021/06/13 09:04:33;;;;;;;9.55;4.95;;;15.40;88.90;;;;;;5032865;28;20493;-60
2021/06/13 09:06:59;;;;;;;9.30;4.55;;;15.40;90.50;;;;;;5032103;28;20049;-58
2021/06/13 09:09:26;;;;;;;;;;;15.60;91.30;;;;;;5032944;28;20513;-59
2021/06/13 09:11:59;;;;;;;11.90;4.57;;;15.80;90.60;;;;;;5031723;28;20339;-60
2021/06/13 09:14:27;;;;;;;10.38;4.10;;;15.80;87.10;;;;;;5032493;28;20080;-59
2021/06/13 09:16:54;;;;;;;16.17;5.30;;;15.70;86.90;;;;;;5031959;28;20121;-59
2021/06/13 09:19:21;;;;;;;10.52;4.60;;;15.50;89.70;;;;;;5031841;28;20524;-58
2021/06/13 09:21:47;;;;;;;13.57;4.68;;;15.50;90.20;;;;;;5014851;28;20049;-60
2021/06/13 09:24:17;;;;;;;;;;;15.60;90.10;;;;;;5014166;28;20041;-60
2021/06/13 09:26:44;;;;;;;15.77;4.53;;;15.80;88.80;;;;;;5032542;28;19932;-60
2021/06/13 09:29:14;;;;;;;11.07;4.53;;;16.00;90.10;;;;;;5015533;28;20044;-59
2021/06/13 09:31:40;;;;;;;14.52;5.10;;;16.00;90.60;;;;;;5032462;28;20091;-60
2021/06/13 09:34:12;;;;;;;;;;;16.00;87.40;;;;;;5034224;28;20492;-60
2021/06/13 09:36:37;;;;;;;17.27;4.30;;;16.30;89.60;;;;;;5030804;28;20459;-60
2021/06/13 09:39:08;;;;;;;;;;;16.40;88.10;;;;;;5032688;28;20124;-59
2021/06/13 09:41:39;;;;;;;10.05;4.03;;;16.40;89.70;;;;;;5031808;28;19925;-60
2021/06/13 09:44:10;;;;;;;12.20;4.30;;;16.40;86.70;;;;;;5014475;28;20135;-58
2021/06/13 09:46:41;;;;;;;7.60;3.78;;;16.30;87.20;;;;;;4997607;28;20424;-58
2021/06/13 09:49:13;;;;;;;10.93;4.05;;;16.30;90.30;;;;;;5029947;28;20037;-60
2021/06/13 09:51:48;;;;;;;9.25;3.90;;;16.50;85.60;;;;;;5013528;28;20050;-60
2021/06/13 09:54:24;;;;;;;8.93;3.67;;;16.30;83.10;;;;;;5014404;28;20529;-61
2021/06/13 09:56:50;;;;;;;;;;;16.40;82.50;;;;;;4995538;28;20045;-59
2021/06/13 09:59:22;;;;;;;10.43;3.65;;;16.10;82.00;;;;;;5013076;28;19924;-59
2021/06/13 10:01:51;;;;;;;13.63;4.20;;;16.30;83.10;;;;;;5013740;28;20037;-58
2021/06/13 10:04:20;;;;;;;12.05;4.22;;;16.90;87.20;;;;;;5013248;28;20038;-60
2021/06/13 10:06:58;;;;;;;12.00;4.78;;;16.80;83.90;;;;;;5031680;28;20128;-60
2021/06/13 10:09:36;;;;;;;12.20;4.47;;;16.70;86.70;;;;;;5013961;28;20396;-59
2021/06/13 10:12:07;;;;;;;14.75;4.25;;;16.80;89.20;;;;;;5029497;28;20681;-60
2021/06/13 10:14:33;;;;;;;15.07;4.53;;;17.00;87.00;;;;;;5028395;28;20124;-58
2021/06/13 10:16:58;;;;;;;;;;;16.90;87.60;;;;;;5026295;28;20270;-62
2021/06/13 10:19:27;;;;;;;10.32;4.82;;;17.00;90.50;;;;;;4999295;28;19917;-55
2021/06/13 10:21:55;;;;;;;9.10;4.15;;;16.90;86.80;;;;;;5025277;28;20048;-57
2021/06/13 10:24:26;;;;;;;10.25;4.10;;;17.00;88.10;;;;;;5039851;28;20095;-57
2021/06/13 10:26:57;;;;;;;11.25;4.50;;;17.20;86.00;;;;;;5023210;28;20037;-58
2021/06/13 10:29:25;;;;;;;12.02;4.18;;;17.40;88.00;;;;;;5042278;28;20111;-56
2021/06/13 10:31:55;;;;;;;10.43;4.10;;;17.50;86.30;;;;;;5026374;28;20041;-62
2021/06/13 10:34:27;;;;;;;9.88;4.05;;;17.30;85.30;;;;;;4994557;28;20033;-60
2021/06/13 10:36:55;;;;;;;12.38;4.38;;;17.40;84.90;;;;;;5023004;28;20083;-58
2021/06/13 10:39:23;;;;;;;14.65;4.20;;;17.40;86.70;;;;;;5028439;28;20408;-60
2021/06/13 10:41:54;;;;;;;14.20;4.32;;;17.50;86.10;;;;;;5027029;28;20069;-56
2021/06/13 10:44:22;;;;;;;11.13;3.70;;;17.70;88.40;;;;;;5030196;28;20563;-51
2021/06/13 10:46:50;;;;;;;11.50;3.95;;;17.50;85.90;;;;;;5012944;28;20422;-56
2021/06/13 10:49:39;;;;;;;9.95;3.80;;;17.40;82.10;;;;;;5029602;28;20041;-55
2021/06/13 10:52:12;;;;;;;11.82;4.38;;;17.30;82.40;;;;;;5013577;28;20038;-58
2021/06/13 10:54:55;;;;;;;7.95;2.80;;;17.40;85.10;;;;;;5026134;28;20140;-59
2021/06/13 10:57:25;;;;;;;11.15;3.40;;;17.50;84.70;;;;;;5034603;28;20048;-58
2021/06/13 10:59:57;;;;;;;10.98;4.40;;;17.60;82.30;;;;;;5029956;28;20124;-60
2021/06/13 11:02:25;;;;;;;8.77;3.63;;;17.60;83.40;;;;;;5049216;28;20048;-59
2021/06/13 11:04:51;;;;;;;13.20;4.43;;;17.70;82.00;;;;;;5049161;28;20048;-59
2021/06/13 11:07:38;;;;;;;;;;;17.60;83.80;;;;;;5049668;28;20400;-57
2021/06/13 11:10:10;;;;;;;12.70;3.67;;;17.40;83.80;;;;;;5021516;28;19925;-57
2021/06/13 11:12:45;;;;;;;8.68;3.63;;;17.50;84.80;;;;;;5027770;28;20092;-59
2021/06/13 11:15:39;;;;;;;8.30;3.63;;;17.60;81.70;;;;;;5022797;28;20571;-56
2021/06/13 11:18:14;;;;;;;8.85;3.72;;;17.40;83.20;;;;;;5016793;28;20107;-56
2021/06/13 11:20:52;;;;;;;7.53;3.75;;;17.30;82.60;;;;;;5025741;28;20118;-57
2021/06/13 11:23:23;;;;;;;10.52;4.65;;;17.40;82.70;;;;;;5027147;28;20049;-57
2021/06/13 11:25:51;;;;;;;9.88;3.40;;;17.40;83.70;;;;;;5037432;28;20041;-58
2021/06/13 11:28:48;;;;;;;10.32;3.65;;;17.40;82.50;;;;;;4996148;28;20053;-61
2021/06/13 11:31:19;;;;;;;7.97;3.45;;;17.20;80.40;;;;;;5030344;28;20041;-61
2021/06/13 11:34:11;;;;;;;6.65;3.10;;;17.20;80.60;;;;;;4996651;28;20038;-60
2021/06/13 11:36:41;;;;;;;8.95;3.47;;;17.30;80.70;;;;;;5022388;28;20132;-58
2021/06/13 11:39:07;;;;;;;9.73;4.10;;;17.40;85.80;;;;;;5045409;28;20037;-58
2021/06/13 11:41:39;;;;;;;;;;;17.60;82.70;;;;;;5031301;28;20094;-60
2021/06/13 11:44:08;;;;;;;9.27;3.45;;;17.50;75.90;;;;;;5026448;28;20481;-61
2021/06/13 11:46:42;;;;;;;8.07;3.72;;;17.40;81.80;;;;;;5036168;28;20044;-61
2021/06/13 11:49:13;;;;;;;10.60;3.75;;;17.40;81.70;;;;;;5036436;28;20029;-59
2021/06/13 11:52:01;;;;;;;9.82;3.28;;;17.60;87.70;;;;;;5016567;28;20094;-57
2021/06/13 11:54:29;;;;;;;11.07;4.00;;;17.50;78.20;;;;;;5048411;28;20041;-57
2021/06/13 11:56:57;;;;;;;6.88;3.47;;;17.30;78.70;;;;;;5033156;28;20045;-66
2021/06/13 11:59:24;;;;;;;9.77;3.75;;;17.60;80.90;;;;;;5010866;28;20122;-58
2021/06/13 12:01:56;;;;;;;6.65;2.90;;;17.70;82.30;;;;;;5027617;28;20041;-56
2021/06/13 12:04:23;;;;;;;12.23;3.75;;;17.80;78.90;;;;;;5026455;28;20053;-59
2021/06/13 12:06:49;;;;;;;9.00;3.20;;;17.70;79.50;;;;;;5026751;28;20504;-57
2021/06/13 12:09:18;;;;;;;10.05;3.15;;;17.90;79.60;;;;;;5027871;28;20033;-61
2021/06/13 12:11:56;;;;;;;10.18;3.17;;;18.00;79.70;;;;;;5010782;28;20418;-58
2021/06/13 12:15:07;;;;;;;10.15;3.47;;;18.20;81.70;;;;;;5030108;28;20045;-59
2021/06/13 12:17:36;;;;;;;8.70;3.13;;;18.30;77.30;;;;;;5028089;28;20433;-60
2021/06/13 12:20:04;;;;;;;9.48;3.30;;;17.90;78.80;;;;;;5030964;28;20056;-58
2021/06/13 12:28:07;;;;;;;13.10;4.72;;;18.10;77.90;;;;;;5020862;28;20049;-59
2021/06/13 12:30:34;;;;;;;8.15;3.70;;;18.10;80.60;;;;;;5040587;28;20038;-57
2021/06/13 12:33:06;;;;;;;10.80;3.78;;;18.10;78.70;;;;;;5037576;28;20033;-58
2021/06/13 12:35:57;;;;;;;7.85;3.58;;;18.30;84.10;;;;;;5031547;28;20073;-60
2021/06/13 12:38:26;;;;;;;9.82;3.63;;;18.40;82.20;;;;;;5030943;28;20037;-58
2021/06/13 12:40:58;;;;;;;10.88;3.97;;;18.30;76.80;;;;;;5030356;28;20106;-60
2021/06/13 12:43:32;;;;;;;9.88;4.28;;;18.20;73.40;;;;;;5031311;28;20049;-57
2021/06/13 12:45:58;;;;;;;8.10;3.70;;;18.20;79.30;;;;;;5031030;28;20046;-58
2021/06/13 12:48:24;;;;;;;;;;;18.40;80.90;;;;;;5031161;28;20037;-58
2021/06/13 12:51:00;;;;;;;8.18;3.33;;;18.20;74.90;;;;;;5012359;28;20287;-59
2021/06/13 12:53:43;;;;;;;12.10;4.55;;;18.10;75.40;;;;;;5013873;28;20103;-61
2021/06/13 12:56:09;;;;;;;9.13;3.70;;;18.20;80.00;;;;;;5020126;28;20052;-55
2021/06/13 12:58:40;;;;;;;7.60;3.05;;;18.20;77.80;;;;;;5033875;28;20124;-61
2021/06/13 13:01:07;;;;;;;7.90;3.45;;;18.20;75.90;;;;;;5010848;28;20457;-58
2021/06/13 13:03:43;;;;;;;8.80;3.10;;;18.30;80.00;;;;;;5037792;28;20426;-59
2021/06/13 13:06:11;;;;;;;7.55;3.40;;;18.50;77.90;;;;;;5027370;28;20045;-59
2021/06/13 13:08:48;;;;;;;7.88;3.75;;;18.60;79.60;;;;;;5050020;28;20531;-59
2021/06/13 13:11:24;;;;;;;12.70;3.08;;;18.40;76.50;;;;;;5050921;28;20055;-60
2021/06/13 13:13:54;;;;;;;7.97;3.30;;;18.30;77.40;;;;;;5049767;28;20048;-60